Eastern Dawn — WDE4132 — position and weather

sailwx.info

Track history (hours):
 
Tides and Currents Weather Stations Pressure Air Temp Water Temp Dewpoint Dewpoint Depression Visibility Wind Speed Wind Dir Waves Ship Positions

Eastern Dawn

Owner: EASTERN BARGE SERVICES INC, SYOSSET, NY. More information available from US FCC via Universal Licensing System and Coast Guard Vessel Documentation Center.

Last reported at 2018-Jan-18 07:35 UTC. Time now 2018-Jan-18 15:35 UTC.
Position N 40°39' W 074°11'.

Length 14 m; draft 2.5 m.

Type: Towing. MMSI: 367349170.

Date/timePositionNaut miles runAvg speedWind from/ knotsBaromVisibWave heightAir tempDewpointWater temp
2018-Jan-18 07:35N 40°39' W 074°11'1 7.3
2018-Jan-18 07:27N 40°39' W 074°10'3 6.5
2018-Jan-18 06:57N 40°39' W 074°06'3 6.8
2018-Jan-18 06:30N 40°40' W 074°02'4 8.7
2018-Jan-18 06:00N 40°43' W 073°58'5 9.6
2018-Jan-18 05:30N 40°47' W 073°55'4 8.0
2018-Jan-18 05:00N 40°48' W 073°50'3 4.1
2018-Jan-18 04:22N 40°51' W 073°48'  
2018-Jan-12 14:55N 40°50' W 073°47'0 0.0
2018-Jan-12 14:29N 40°50' W 073°47'0 0.0
2018-Jan-12 13:58N 40°50' W 073°47'0 0.0
2018-Jan-12 13:24N 40°50' W 073°47'0 0.0
2018-Jan-12 13:00N 40°50' W 073°47'1 0.7
2018-Jan-12 11:16N 40°50' W 073°48'1 0.3
2018-Jan-12 07:52N 40°50' W 073°47'0 0.1
2018-Jan-12 07:28N 40°50' W 073°47'0 0.0
2018-Jan-12 07:00N 40°50' W 073°47'0 0.4
2018-Jan-12 06:30N 40°49' W 073°47'2 4.7
2018-Jan-12 06:00N 40°48' W 073°50'4 7.2
2018-Jan-12 05:27N 40°47' W 073°55'3 6.1
2018-Jan-12 05:00N 40°45' W 073°58'3 5.8
2018-Jan-12 04:30N 40°43' W 073°59'3 5.4
2018-Jan-12 04:00N 40°41' W 074°01'3 5.4
2018-Jan-12 03:30N 40°39' W 074°04'3 6.1
2018-Jan-12 03:00N 40°39' W 074°08'2 4.6
2018-Jan-12 02:30N 40°41' W 074°08'2 3.3
2018-Jan-12 02:00N 40°42' W 074°07'0 0.0
2018-Jan-12 01:30N 40°42' W 074°07'0 0.0
2018-Jan-12 01:00N 40°42' W 074°07'0 0.0
2018-Jan-12 00:30N 40°42' W 074°07'0 0.0
2018-Jan-12 00:00N 40°42' W 074°07'0 0.0
2018-Jan-11 23:30N 40°42' W 074°07'0 0.0
2018-Jan-11 23:00N 40°42' W 074°07'0 0.0
2018-Jan-11 22:30N 40°42' W 074°07'0 0.0
2018-Jan-11 22:00N 40°42' W 074°07'0 0.0
2018-Jan-11 21:30N 40°42' W 074°07'0 0.0
2018-Jan-11 21:00N 40°42' W 074°07'0 0.0
2018-Jan-11 20:30N 40°42' W 074°07'0 0.0
2018-Jan-11 20:00N 40°42' W 074°07'0 0.0
2018-Jan-11 19:30N 40°42' W 074°07'0 0.0
2018-Jan-11 19:00N 40°42' W 074°07'0 0.0
2018-Jan-11 18:30N 40°42' W 074°07'0 0.0
2018-Jan-11 18:00N 40°42' W 074°07'0 0.0
2018-Jan-11 17:29N 40°42' W 074°07'3 5.9
2018-Jan-11 17:00N 40°40' W 074°08'3 4.7
2018-Jan-11 16:26N 40°39' W 074°05'3 7.5
2018-Jan-11 16:00N 40°40' W 074°01'0 0.4
2018-Jan-11 15:30N 40°40' W 074°01'0 0.0
2018-Jan-11 15:00N 40°40' W 074°01'0 0.0
2018-Jan-11 14:30N 40°40' W 074°01'0 0.0
2018-Jan-11 14:00N 40°40' W 074°01'0 0.0
2018-Jan-11 13:30N 40°40' W 074°01'0 0.0
2018-Jan-11 13:00N 40°40' W 074°01'0 0.0
2018-Jan-11 12:30N 40°40' W 074°01'0 0.1
2018-Jan-11 12:00N 40°40' W 074°01'0 0.0
2018-Jan-11 11:30N 40°40' W 074°01'0 0.0
2018-Jan-11 11:00N 40°40' W 074°01'0 0.0
2018-Jan-11 10:30N 40°40' W 074°01'0 0.0
2018-Jan-11 10:00N 40°40' W 074°01'0 0.0
2018-Jan-11 09:30N 40°40' W 074°01'0 0.0
2018-Jan-11 09:00N 40°40' W 074°01'0 0.0
2018-Jan-11 08:30N 40°40' W 074°01'0 0.0
2018-Jan-11 08:00N 40°40' W 074°01'0 0.0
2018-Jan-11 07:30N 40°40' W 074°01'0 0.0
2018-Jan-11 07:00N 40°40' W 074°01'0 0.0
2018-Jan-11 06:30N 40°40' W 074°01'0 0.0
2018-Jan-11 06:00N 40°40' W 074°01'0 0.0
2018-Jan-11 05:29N 40°40' W 074°01'0 0.0
2018-Jan-11 05:00N 40°40' W 074°01'0 0.0
2018-Jan-11 04:30N 40°40' W 074°01'0 0.0
2018-Jan-11 04:00N 40°40' W 074°01'0 0.0
2018-Jan-11 03:30N 40°40' W 074°01'0 0.0
2018-Jan-11 03:00N 40°40' W 074°01'0 0.0
2018-Jan-11 02:30N 40°40' W 074°01'0 0.0
2018-Jan-11 02:00N 40°40' W 074°01'0 0.8
2018-Jan-11 01:30N 40°40' W 074°01'4 8.2
2018-Jan-11 01:00N 40°44' W 073°58'  
Track history (hours):
 
Tides and Currents Weather Stations Pressure Air Temp Water Temp Dewpoint Dewpoint Depression Visibility Wind Speed Wind Dir Waves Ship Positions

Eastern Dawn

Owner: EASTERN BARGE SERVICES INC, SYOSSET, NY. More information available from US FCC via Universal Licensing System and Coast Guard Vessel Documentation Center.

Last reported at 2018-Jan-18 07:35 UTC. Time now 2018-Jan-18 15:35 UTC.
Position N 40°39' W 074°11'.

Length 14 m; draft 2.5 m.

Type: Towing. MMSI: 367349170.

Date/timePositionNaut miles runAvg speedWind from/ knotsBaromVisibWave heightAir tempDewpointWater temp
2018-Jan-18 07:35N 40°39' W 074°11'1 7.3
2018-Jan-18 07:27N 40°39' W 074°10'3 6.5
2018-Jan-18 06:57N 40°39' W 074°06'3 6.8
2018-Jan-18 06:30N 40°40' W 074°02'4 8.7
2018-Jan-18 06:00N 40°43' W 073°58'5 9.6
2018-Jan-18 05:30N 40°47' W 073°55'4 8.0
2018-Jan-18 05:00N 40°48' W 073°50'3 4.1
2018-Jan-18 04:22N 40°51' W 073°48'  
2018-Jan-12 14:55N 40°50' W 073°47'0 0.0
2018-Jan-12 14:29N 40°50' W 073°47'0 0.0
2018-Jan-12 13:58N 40°50' W 073°47'0 0.0
2018-Jan-12 13:24N 40°50' W 073°47'0 0.0
2018-Jan-12 13:00N 40°50' W 073°47'1 0.7
2018-Jan-12 11:16N 40°50' W 073°48'1 0.3
2018-Jan-12 07:52N 40°50' W 073°47'0 0.1
2018-Jan-12 07:28N 40°50' W 073°47'0 0.0
2018-Jan-12 07:00N 40°50' W 073°47'0 0.4
2018-Jan-12 06:30N 40°49' W 073°47'2 4.7
2018-Jan-12 06:00N 40°48' W 073°50'4 7.2
2018-Jan-12 05:27N 40°47' W 073°55'3 6.1
2018-Jan-12 05:00N 40°45' W 073°58'3 5.8
2018-Jan-12 04:30N 40°43' W 073°59'3 5.4
2018-Jan-12 04:00N 40°41' W 074°01'3 5.4
2018-Jan-12 03:30N 40°39' W 074°04'3 6.1
2018-Jan-12 03:00N 40°39' W 074°08'2 4.6
2018-Jan-12 02:30N 40°41' W 074°08'2 3.3
2018-Jan-12 02:00N 40°42' W 074°07'0 0.0
2018-Jan-12 01:30N 40°42' W 074°07'0 0.0
2018-Jan-12 01:00N 40°42' W 074°07'0 0.0
2018-Jan-12 00:30N 40°42' W 074°07'0 0.0
2018-Jan-12 00:00N 40°42' W 074°07'0 0.0
2018-Jan-11 23:30N 40°42' W 074°07'0 0.0
2018-Jan-11 23:00N 40°42' W 074°07'0 0.0
2018-Jan-11 22:30N 40°42' W 074°07'0 0.0
2018-Jan-11 22:00N 40°42' W 074°07'0 0.0
2018-Jan-11 21:30N 40°42' W 074°07'0 0.0
2018-Jan-11 21:00N 40°42' W 074°07'0 0.0
2018-Jan-11 20:30N 40°42' W 074°07'0 0.0
2018-Jan-11 20:00N 40°42' W 074°07'0 0.0
2018-Jan-11 19:30N 40°42' W 074°07'0 0.0
2018-Jan-11 19:00N 40°42' W 074°07'0 0.0
2018-Jan-11 18:30N 40°42' W 074°07'0 0.0
2018-Jan-11 18:00N 40°42' W 074°07'0 0.0
2018-Jan-11 17:29N 40°42' W 074°07'3 5.9
2018-Jan-11 17:00N 40°40' W 074°08'3 4.7
2018-Jan-11 16:26N 40°39' W 074°05'3 7.5
2018-Jan-11 16:00N 40°40' W 074°01'0 0.4
2018-Jan-11 15:30N 40°40' W 074°01'0 0.0
2018-Jan-11 15:00N 40°40' W 074°01'0 0.0
2018-Jan-11 14:30N 40°40' W 074°01'0 0.0
2018-Jan-11 14:00N 40°40' W 074°01'0 0.0
2018-Jan-11 13:30N 40°40' W 074°01'0 0.0
2018-Jan-11 13:00N 40°40' W 074°01'0 0.0
2018-Jan-11 12:30N 40°40' W 074°01'0 0.1
2018-Jan-11 12:00N 40°40' W 074°01'0 0.0
2018-Jan-11 11:30N 40°40' W 074°01'0 0.0
2018-Jan-11 11:00N 40°40' W 074°01'0 0.0
2018-Jan-11 10:30N 40°40' W 074°01'0 0.0
2018-Jan-11 10:00N 40°40' W 074°01'0 0.0
2018-Jan-11 09:30N 40°40' W 074°01'0 0.0
2018-Jan-11 09:00N 40°40' W 074°01'0 0.0
2018-Jan-11 08:30N 40°40' W 074°01'0 0.0
2018-Jan-11 08:00N 40°40' W 074°01'0 0.0
2018-Jan-11 07:30N 40°40' W 074°01'0 0.0
2018-Jan-11 07:00N 40°40' W 074°01'0 0.0
2018-Jan-11 06:30N 40°40' W 074°01'0 0.0
2018-Jan-11 06:00N 40°40' W 074°01'0 0.0
2018-Jan-11 05:29N 40°40' W 074°01'0 0.0
2018-Jan-11 05:00N 40°40' W 074°01'0 0.0
2018-Jan-11 04:30N 40°40' W 074°01'0 0.0
2018-Jan-11 04:00N 40°40' W 074°01'0 0.0
2018-Jan-11 03:30N 40°40' W 074°01'0 0.0
2018-Jan-11 03:00N 40°40' W 074°01'0 0.0
2018-Jan-11 02:30N 40°40' W 074°01'0 0.0
2018-Jan-11 02:00N 40°40' W 074°01'0 0.8
2018-Jan-11 01:30N 40°40' W 074°01'4 8.2
2018-Jan-11 01:00N 40°44' W 073°58'  

Dump ship's entire track history